^^
Your Local Weather - Clay, NY Station Historical Data
Daily Summary for October 11, 2017 Units:  English    Metric   Both
« Previous Day
Next Day »
Daily Weekly Monthly Yearly Custom
  High: Low: Average:
Temperature: 60.4 °F 49.2 °F 56.1 °F
Dew Point: 57.0 °F 45.8 °F 53.6 °F
Humidity: 95% 78% 91%
Wind Speed: 4.0mph 0.0mph 1.1mph
Wind Gust: 9.0mph - -
Wind- - ESE
Pressure: 30.23 in 30.09 in -
Precipitation: 0.51 in    
Historical Graphs
 
 
Tabular Data for October 11, 2017
Time Temperature Dew Point Pressure Wind Wind Speed Wind Gust Humidity Rainfall Rate (Hourly) solar
00:02 56.1 °F 54.4 °F 30.11 in Calm     94% 0.00 in 0 W/m2
00:08 55.9 °F 54.2 °F 30.11 in Calm     94% 0.00 in 0 W/m2
00:14 55.8 °F 54.1 °F 30.12 in Calm     94% 0.00 in 0 W/m2
00:20 55.8 °F 53.8 °F 30.12 in Calm     93% 0.00 in 0 W/m2
00:26 55.7 °F 54.0 °F 30.12 in Calm     94% 0.00 in 0 W/m2
00:32 55.6 °F 53.9 °F 30.11 in Calm     94% 0.00 in 0 W/m2
00:38 55.6 °F 53.9 °F 30.12 in Calm     94% 0.00 in 0 W/m2
00:44 55.7 °F 54.0 °F 30.11 in Calm     94% 0.00 in 0 W/m2
00:50 55.7 °F 54.0 °F 30.11 in Calm     94% 0.00 in 0 W/m2
00:56 55.6 °F 53.9 °F 30.10 in Calm     94% 0.00 in 0 W/m2
01:02 55.6 °F 53.9 °F 30.10 in Calm     94% 0.00 in 0 W/m2
01:08 55.7 °F 54.0 °F 30.10 in Calm     94% 0.00 in 0 W/m2
01:14 55.7 °F 54.0 °F 30.10 in Calm     94% 0.00 in 0 W/m2
01:26 55.7 °F 54.0 °F 30.10 in Calm     94% 0.00 in 0 W/m2
01:30 55.6 °F 53.9 °F 30.10 in Calm     94% 0.00 in 0 W/m2
01:36 55.6 °F 53.9 °F 30.10 in Calm     94% 0.00 in 0 W/m2
01:42 55.5 °F 53.8 °F 30.10 in Calm     94% 0.00 in 0 W/m2
01:48 55.7 °F 54.0 °F 30.11 in Calm     94% 0.00 in 0 W/m2
02:00 55.8 °F 54.1 °F 30.10 in Calm     94% 0.00 in 0 W/m2
02:06 55.8 °F 54.1 °F 30.10 in Calm     94% 0.00 in 0 W/m2
02:12 55.9 °F 54.2 °F 30.10 in Calm     94% 0.00 in 0 W/m2
02:18 56.0 °F 54.3 °F 30.10 in Calm     94% 0.00 in 0 W/m2
02:24 56.1 °F 54.4 °F 30.10 in Calm     94% 0.00 in 0 W/m2
02:30 56.1 °F 54.4 °F 30.10 in Calm     94% 0.00 in 0 W/m2
02:36 56.1 °F 54.4 °F 30.10 in Calm     94% 0.00 in 0 W/m2
02:42 56.1 °F 54.4 °F 30.10 in Calm     94% 0.00 in 0 W/m2
02:48 56.0 °F 54.3 °F 30.10 in Calm     94% 0.00 in 0 W/m2
03:00 56.0 °F 54.3 °F 30.10 in Calm     94% 0.00 in 0 W/m2
03:06 55.9 °F 54.2 °F 30.10 in Calm     94% 0.00 in 0 W/m2
03:12 55.9 °F 54.2 °F 30.10 in Calm     94% 0.00 in 0 W/m2
03:18 55.8 °F 54.1 °F 30.10 in Calm     94% 0.00 in 0 W/m2
03:24 55.7 °F 54.0 °F 30.09 in Calm     94% 0.00 in 0 W/m2
03:30 55.7 °F 54.0 °F 30.09 in Calm     94% 0.00 in 0 W/m2
03:36 55.8 °F 54.1 °F 30.09 in Calm     94% 0.00 in 0 W/m2
03:42 55.8 °F 54.1 °F 30.09 in Calm     94% 0.00 in 0 W/m2
03:48 55.7 °F 54.0 °F 30.09 in Calm     94% 0.00 in 0 W/m2
03:54 55.7 °F 54.0 °F 30.09 in Calm     94% 0.00 in 0 W/m2
04:00 55.6 °F 54.2 °F 30.09 in Calm     95% 0.00 in 0 W/m2
04:06 55.5 °F 54.1 °F 30.09 in Calm     95% 0.00 in 0 W/m2
04:12 55.4 °F 53.7 °F 30.09 in Calm     94% 0.00 in 0 W/m2
04:18 55.2 °F 53.5 °F 30.09 in Calm     94% 0.00 in 0 W/m2
04:24 55.2 °F 53.5 °F 30.09 in Calm     94% 0.00 in 0 W/m2
04:30 55.2 °F 53.5 °F 30.09 in Calm     94% 0.00 in 0 W/m2
04:36 55.2 °F 53.5 °F 30.09 in Calm     94% 0.00 in 0 W/m2
04:42 55.3 °F 53.9 °F 30.09 in Calm     95% 0.00 in 0 W/m2
04:48 55.3 °F 53.9 °F 30.09 in Calm     95% 0.00 in 0 W/m2
04:54 55.4 °F 54.0 °F 30.10 in Calm     95% 0.00 in 0 W/m2
05:06 55.6 °F 54.2 °F 30.10 in Calm     95% 0.00 in 0 W/m2
05:18 55.6 °F 54.2 °F 30.10 in Calm     95% 0.00 in 0 W/m2
05:24 55.5 °F 54.1 °F 30.10 in Calm     95% 0.00 in 0 W/m2
05:30 55.6 °F 54.2 °F 30.10 in Calm     95% 0.00 in 0 W/m2
05:36 55.6 °F 54.2 °F 30.10 in Calm     95% 0.00 in 0 W/m2
05:42 55.6 °F 54.2 °F 30.10 in Calm     95% 0.00 in 0 W/m2
05:48 55.6 °F 54.2 °F 30.10 in Calm     95% 0.00 in 0 W/m2
05:54 55.7 °F 54.3 °F 30.10 in Calm     95% 0.00 in 0 W/m2
06:00 55.7 °F 54.3 °F 30.10 in Calm     95% 0.00 in 0 W/m2
06:06 55.7 °F 54.3 °F 30.10 in Calm     95% 0.00 in 0 W/m2
06:12 55.6 °F 54.2 °F 30.10 in Calm     95% 0.00 in 0 W/m2
06:18 55.7 °F 54.3 °F 30.09 in Calm     95% 0.00 in 0 W/m2
06:24 55.6 °F 54.2 °F 30.10 in Calm     95% 0.00 in 0 W/m2
06:30 55.7 °F 54.3 °F 30.10 in Calm     95% 0.00 in 0 W/m2
06:36 55.7 °F 54.3 °F 30.10 in Calm     95% 0.00 in 0 W/m2
06:42 55.8 °F 54.4 °F 30.10 in Calm     95% 0.00 in 0 W/m2
06:48 56.0 °F 54.6 °F 30.11 in Calm     95% 0.00 in 0 W/m2
06:54 56.1 °F 54.7 °F 30.12 in Calm     95% 0.00 in 0 W/m2
07:00 56.1 °F 54.7 °F 30.12 in Calm     95% 0.00 in 0 W/m2
07:06 56.1 °F 54.7 °F 30.12 in Calm     95% 0.00 in 0 W/m2
07:12 56.0 °F 54.6 °F 30.12 in Calm     95% 0.00 in 0 W/m2
07:18 56.0 °F 54.6 °F 30.12 in Calm     95% 0.00 in 0 W/m2
07:24 56.1 °F 54.7 °F 30.12 in Calm     95% 0.00 in 0 W/m2
07:30 56.1 °F 54.7 °F 30.12 in Calm     95% 0.00 in 0 W/m2
07:36 56.1 °F 54.7 °F 30.12 in Calm     95% 0.00 in 5 W/m2
07:42 56.2 °F 54.8 °F 30.12 in Calm     95% 0.00 in 5 W/m2
07:48 56.3 °F 54.9 °F 30.12 in Calm     95% 0.00 in 11 W/m2
07:54 56.4 °F 55.0 °F 30.12 in Calm     95% 0.00 in 16 W/m2
08:00 56.5 °F 55.1 °F 30.13 in Calm     95% 0.00 in 18 W/m2
08:06 56.6 °F 55.2 °F 30.13 in Calm   1.0 mph 95% 0.00 in 16 W/m2
08:12 56.8 °F 55.4 °F 30.13 in Calm   2.0 mph 95% 0.00 in 21 W/m2
08:18 56.9 °F 55.5 °F 30.13 in NW 1.0 mph 2.0 mph 95% 0.00 in 21 W/m2
08:24 56.9 °F 55.5 °F 30.12 in NW 1.0 mph 2.0 mph 95% 0.00 in 18 W/m2
08:30 57.0 °F 55.6 °F 30.13 in NW 1.0 mph 1.0 mph 95% 0.00 in 14 W/m2
08:36 57.0 °F 55.6 °F 30.14 in NW 1.0 mph 2.0 mph 95% 0.00 in 26 W/m2
08:42 57.1 °F 55.7 °F 30.14 in NW 1.0 mph 2.0 mph 95% 0.00 in 19 W/m2
08:50 57.2 °F 55.8 °F 30.14 in NW 1.0 mph 1.0 mph 95% 0.00 in 21 W/m2
08:56 57.1 °F 55.7 °F 30.15 in Calm   1.0 mph 95% 0.00 in 21 W/m2
09:02 57.2 °F 55.8 °F 30.15 in Calm     95% 0.00 in 21 W/m2
09:08 57.2 °F 55.8 °F 30.15 in Calm     95% 0.00 in 18 W/m2
09:14 57.2 °F 55.8 °F 30.15 in Calm   1.0 mph 95% 0.00 in 25 W/m2
09:20 57.2 °F 55.8 °F 30.15 in Calm   2.0 mph 95% 0.00 in 40 W/m2
09:26 57.2 °F 55.8 °F 30.16 in NW 1.0 mph 3.0 mph 95% 0.00 in 40 W/m2
09:32 57.3 °F 55.9 °F 30.17 in NW 1.0 mph 1.0 mph 95% 0.00 in 62 W/m2
09:38 57.3 °F 55.9 °F 30.17 in NW 1.0 mph 2.0 mph 95% 0.00 in 76 W/m2
09:44 57.4 °F 56.0 °F 30.16 in NW 1.0 mph 2.0 mph 95% 0.00 in 63 W/m2
09:50 57.3 °F 55.9 °F 30.15 in NE 1.0 mph 1.0 mph 95% 0.00 in 56 W/m2
09:56 57.2 °F 55.8 °F 30.16 in NE 1.0 mph 1.0 mph 95% 0.00 in 74 W/m2
10:02 57.1 °F 55.7 °F 30.17 in NNE 1.0 mph 2.0 mph 95% 0.00 in 65 W/m2
10:08 57.0 °F 55.6 °F 30.17 in NNE 2.0 mph 3.0 mph 95% 0.00 in 67 W/m2
10:14 57.1 °F 55.7 °F 30.17 in NNE 2.0 mph 3.0 mph 95% 0.00 in 69 W/m2
10:20 57.3 °F 55.6 °F 30.17 in NE 2.0 mph 2.0 mph 94% 0.00 in 83 W/m2
10:26 57.5 °F 55.8 °F 30.17 in NNW 2.0 mph 6.0 mph 94% 0.00 in 83 W/m2
10:32 57.7 °F 56.0 °F 30.17 in NNW 2.0 mph 3.0 mph 94% 0.00 in 76 W/m2
10:38 57.8 °F 55.8 °F 30.17 in North 1.0 mph 3.0 mph 93% 0.00 in 86 W/m2
10:50 58.0 °F 56.0 °F 30.17 in Calm   2.0 mph 93% 0.00 in 127 W/m2
10:56 58.0 °F 55.7 °F 30.16 in NNW 2.0 mph 3.0 mph 92% 0.00 in 142 W/m2
11:02 57.9 °F 55.0 °F 30.17 in NNE 2.0 mph 4.0 mph 90% 0.00 in 95 W/m2
11:08 57.9 °F 55.0 °F 30.16 in NE 2.0 mph 4.0 mph 90% 0.00 in 93 W/m2
11:14 58.0 °F 54.8 °F 30.15 in NE 2.0 mph 5.0 mph 89% 0.00 in 151 W/m2
11:20 58.4 °F 54.9 °F 30.15 in NNE 3.0 mph 3.0 mph 88% 0.00 in 118 W/m2
11:26 58.7 °F 55.2 °F 30.15 in NNE 1.0 mph 3.0 mph 88% 0.00 in 93 W/m2
11:32 58.9 °F 55.4 °F 30.16 in NNE 1.0 mph 3.0 mph 88% 0.00 in 123 W/m2
11:38 59.1 °F 55.2 °F 30.15 in North 2.0 mph 4.0 mph 87% 0.00 in 134 W/m2
11:44 59.3 °F 55.1 °F 30.16 in ENE 3.0 mph 3.0 mph 86% 0.00 in 149 W/m2
11:50 59.4 °F 54.9 °F 30.16 in East 2.0 mph 2.0 mph 85% 0.00 in 146 W/m2
11:52 59.5 °F 55.0 °F 30.16 in NE 2.0 mph 3.0 mph 85% 0.00 in 144 W/m2
11:58 59.6 °F 54.8 °F 30.15 in ENE 2.0 mph 5.0 mph 84% 0.00 in 139 W/m2
12:04 59.8 °F 55.3 °F 30.15 in NNW 1.0 mph 4.0 mph 85% 0.00 in 142 W/m2
12:10 59.8 °F 55.3 °F 30.15 in ENE 2.0 mph 2.0 mph 85% 0.00 in 121 W/m2
12:16 59.9 °F 55.1 °F 30.15 in NNE 2.0 mph 2.0 mph 84% 0.00 in 102 W/m2
12:22 60.0 °F 55.2 °F 30.16 in NE 1.0 mph 3.0 mph 84% 0.00 in 102 W/m2
12:28 60.1 °F 55.2 °F 30.15 in NE 1.0 mph 3.0 mph 84% 0.00 in 83 W/m2
12:34 60.2 °F 55.3 °F 30.15 in Calm   2.0 mph 84% 0.00 in 63 W/m2
12:40 60.1 °F 54.9 °F 30.15 in NNW 1.0 mph 1.0 mph 83% 0.00 in 62 W/m2
12:46 60.0 °F 55.2 °F 30.15 in NE 1.0 mph 3.0 mph 84% 0.00 in 51 W/m2
12:52 60.0 °F 55.2 °F 30.14 in NE 1.0 mph 3.0 mph 84% 0.00 in 58 W/m2
12:58 60.0 °F 55.2 °F 30.14 in NE 2.0 mph 3.0 mph 84% 0.00 in 88 W/m2
13:04 60.0 °F 55.2 °F 30.13 in NE 2.0 mph 2.0 mph 84% 0.00 in 109 W/m2
13:10 60.2 °F 55.3 °F 30.13 in North 2.0 mph 3.0 mph 84% 0.00 in 118 W/m2
13:16 60.4 °F 55.5 °F 30.12 in NE 3.0 mph 4.0 mph 84% 0.00 in 116 W/m2
13:22 60.4 °F 55.5 °F 30.12 in NNE 3.0 mph 4.0 mph 84% 0.00 in 114 W/m2
13:29 60.3 °F 55.8 °F 30.12 in NNE 2.0 mph 4.0 mph 85% 0.00 in 100 W/m2
13:34 60.3 °F 56.1 °F 30.12 in NNE 1.0 mph 2.0 mph 86% 0.00 in 121 W/m2
13:40 60.1 °F 55.9 °F 30.12 in NNE 2.0 mph 2.0 mph 86% 0.00 in 81 W/m2
13:46 60.0 °F 56.1 °F 30.12 in ENE 2.0 mph 4.0 mph 87% 0.00 in 76 W/m2
13:52 60.0 °F 56.1 °F 30.12 in NE 2.0 mph 2.0 mph 87% 0.00 in 63 W/m2
13:58 59.9 °F 56.0 °F 30.12 in ENE 1.0 mph 4.0 mph 87% 0.00 in 69 W/m2
14:04 59.9 °F 56.3 °F 30.11 in ENE 1.0 mph 1.0 mph 88% 0.00 in 65 W/m2
14:16 59.8 °F 56.2 °F 30.12 in NNE 1.0 mph 2.0 mph 88% 0.00 in 46 W/m2
14:22 59.7 °F 56.5 °F 30.12 in NNE 1.0 mph 1.0 mph 89% 0.00 in 40 W/m2
14:28 59.7 °F 56.5 °F 30.12 in NNE 1.0 mph 1.0 mph 89% 0.00 in 40 W/m2
14:34 59.8 °F 56.9 °F 30.14 in Calm     90% 0.00 in 30 W/m2
14:40 59.7 °F 56.8 °F 30.14 in Calm     90% 0.00 in 37 W/m2
14:46 59.7 °F 56.8 °F 30.14 in Calm     90% 0.14 in 56 W/m2
14:52 59.6 °F 57.0 °F 30.14 in Calm   1.0 mph 91% 0.10 in 83 W/m2
14:58 59.5 °F 56.9 °F 30.14 in NNE 1.0 mph 1.0 mph 91% 0.08 in 54 W/m2
15:04 59.3 °F 56.7 °F 30.14 in NNE 1.0 mph 1.0 mph 91% 0.06 in 53 W/m2
15:10 59.0 °F 56.4 °F 30.14 in NW 1.0 mph 1.0 mph 91% 0.04 in 67 W/m2
15:16 58.8 °F 56.2 °F 30.14 in NW 1.0 mph 3.0 mph 91% 0.00 in 56 W/m2
15:22 58.6 °F 56.0 °F 30.14 in North 2.0 mph 2.0 mph 91% 0.00 in 63 W/m2
15:28 58.5 °F 55.9 °F 30.14 in NNW 2.0 mph 4.0 mph 91% 0.00 in 62 W/m2
15:40 58.2 °F 55.6 °F 30.14 in North 1.0 mph 2.0 mph 91% 0.00 in 77 W/m2
15:46 58.2 °F 55.6 °F 30.14 in North 2.0 mph 3.0 mph 91% 0.00 in 98 W/m2
15:52 58.3 °F 56.0 °F 30.15 in North 1.0 mph 2.0 mph 92% 0.00 in 62 W/m2
15:58 58.3 °F 56.0 °F 30.14 in Calm   2.0 mph 92% 0.00 in 53 W/m2
16:04 58.4 °F 56.1 °F 30.14 in Calm   1.0 mph 92% 0.00 in 70 W/m2
16:10 58.6 °F 56.3 °F 30.14 in Calm   1.0 mph 92% 0.00 in 81 W/m2
16:16 58.7 °F 56.4 °F 30.14 in North 1.0 mph 1.0 mph 92% 0.00 in 76 W/m2
16:22 58.8 °F 56.5 °F 30.14 in NNE 1.0 mph 3.0 mph 92% 0.00 in 58 W/m2
16:28 58.8 °F 56.5 °F 30.14 in NNE 1.0 mph 3.0 mph 92% 0.00 in 39 W/m2
16:34 58.9 °F 56.6 °F 30.14 in NNE 1.0 mph 3.0 mph 92% 0.00 in 49 W/m2
16:40 58.9 °F 56.6 °F 30.14 in NNE 2.0 mph 2.0 mph 92% 0.00 in 37 W/m2
16:46 58.7 °F 56.4 °F 30.14 in North 2.0 mph 2.0 mph 92% 0.00 in 33 W/m2
16:52 58.6 °F 56.3 °F 30.14 in North 2.0 mph 2.0 mph 92% 0.00 in 30 W/m2
16:58 58.4 °F 55.8 °F 30.14 in North 2.0 mph 4.0 mph 91% 0.00 in 26 W/m2
17:04 58.2 °F 55.6 °F 30.14 in NNW 2.0 mph 4.0 mph 91% 0.00 in 19 W/m2
17:10 58.1 °F 55.5 °F 30.14 in NE 2.0 mph 2.0 mph 91% 0.00 in 21 W/m2
17:16 57.8 °F 55.2 °F 30.14 in North 2.0 mph 5.0 mph 91% 0.00 in 19 W/m2
17:22 57.6 °F 54.7 °F 30.14 in ENE 1.0 mph 2.0 mph 90% 0.11 in 21 W/m2
17:28 57.3 °F 54.1 °F 30.14 in East 1.0 mph 3.0 mph 89% 0.08 in 23 W/m2
17:34 57.0 °F 53.8 °F 30.14 in East 2.0 mph 5.0 mph 89% 0.04 in 28 W/m2
17:40 56.7 °F 53.2 °F 30.14 in North 2.0 mph 2.0 mph 88% 0.00 in 26 W/m2
17:46 56.5 °F 53.0 °F 30.14 in NE 2.0 mph 4.0 mph 88% 0.00 in 12 W/m2
17:52 56.4 °F 52.9 °F 30.15 in North 2.0 mph 2.0 mph 88% 0.00 in 5 W/m2
17:58 56.2 °F 52.7 °F 30.15 in NNE 2.0 mph 4.0 mph 88% 0.00 in 0 W/m2
18:04 56.1 °F 52.9 °F 30.15 in ENE 1.0 mph 3.0 mph 89% 0.00 in 0 W/m2
18:10 56.0 °F 52.8 °F 30.15 in NE 1.0 mph 1.0 mph 89% 0.00 in 0 W/m2
18:16 55.8 °F 52.6 °F 30.14 in NNE 2.0 mph 2.0 mph 89% 0.00 in 0 W/m2
18:22 55.8 °F 52.6 °F 30.14 in North 2.0 mph 6.0 mph 89% 0.00 in 0 W/m2
18:28 55.7 °F 52.5 °F 30.14 in NE 3.0 mph 6.0 mph 89% 0.00 in 0 W/m2
18:34 55.6 °F 52.4 °F 30.14 in East 3.0 mph 3.0 mph 89% 0.00 in 0 W/m2
18:40 55.6 °F 52.4 °F 30.14 in ENE 3.0 mph 3.0 mph 89% 0.00 in 0 W/m2
18:46 55.6 °F 52.1 °F 30.15 in ENE 2.0 mph 4.0 mph 88% 0.00 in 0 W/m2
18:52 55.7 °F 52.2 °F 30.16 in ENE 1.0 mph 3.0 mph 88% 0.00 in 0 W/m2
18:58 55.7 °F 52.2 °F 30.16 in ESE 2.0 mph 4.0 mph 88% 0.00 in 0 W/m2
19:04 55.6 °F 51.2 °F 30.16 in NNE 3.0 mph 3.0 mph 85% 0.00 in 0 W/m2
19:10 55.5 °F 50.7 °F 30.16 in ENE 3.0 mph 3.0 mph 84% 0.00 in 0 W/m2
19:16 55.2 °F 49.1 °F 30.16 in North 4.0 mph 5.0 mph 80% 0.00 in 0 W/m2
19:22 55.0 °F 48.3 °F 30.17 in ENE 4.0 mph 4.0 mph 78% 0.00 in 0 W/m2
19:28 54.6 °F 47.9 °F 30.17 in ENE 2.0 mph 4.0 mph 78% 0.00 in 0 W/m2
19:34 53.8 °F 47.8 °F 30.16 in NE 3.0 mph 4.0 mph 80% 0.00 in 0 W/m2
19:40 53.1 °F 47.4 °F 30.16 in ENE 3.0 mph 3.0 mph 81% 0.07 in 0 W/m2
19:46 52.7 °F 47.7 °F 30.16 in ENE 3.0 mph 3.0 mph 83% 0.07 in 0 W/m2
19:52 52.2 °F 47.8 °F 30.17 in North 2.0 mph 3.0 mph 85% 0.14 in 0 W/m2
19:58 51.8 °F 47.7 °F 30.17 in ENE 2.0 mph 4.0 mph 86% 0.09 in 0 W/m2
20:04 51.7 °F 48.0 °F 30.17 in ENE 3.0 mph 6.0 mph 87% 0.09 in 0 W/m2
20:10 51.7 °F 48.3 °F 30.17 in NNW 3.0 mph 3.0 mph 88% 0.10 in 0 W/m2
20:16 51.6 °F 48.5 °F 30.17 in North 2.0 mph 4.0 mph 89% 0.05 in 0 W/m2
20:22 51.7 °F 48.9 °F 30.17 in NNE 2.0 mph 2.0 mph 90% 0.00 in 0 W/m2
20:28 51.8 °F 49.0 °F 30.17 in NNE 1.0 mph 3.0 mph 90% 0.00 in 0 W/m2
20:34 51.9 °F 49.4 °F 30.17 in North 2.0 mph 3.0 mph 91% 0.00 in 0 W/m2
20:40 51.9 °F 49.4 °F 30.17 in NNE 3.0 mph 7.0 mph 91% 0.00 in 0 W/m2
20:46 52.1 °F 49.6 °F 30.18 in ENE 3.0 mph 7.0 mph 91% 0.00 in 0 W/m2
20:52 52.3 °F 49.8 °F 30.19 in NNE 2.0 mph 2.0 mph 91% 0.00 in 0 W/m2
20:58 52.6 °F 50.0 °F 30.19 in NE 1.0 mph 2.0 mph 91% 0.00 in 0 W/m2
21:04 52.7 °F 50.4 °F 30.19 in NE 1.0 mph 4.0 mph 92% 0.38 in 0 W/m2
21:10 52.9 °F 50.6 °F 30.19 in NE 2.0 mph 2.0 mph 92% 0.28 in 0 W/m2
21:16 52.9 °F 50.6 °F 30.20 in NE 1.0 mph 2.0 mph 92% 0.27 in 0 W/m2
21:22 52.9 °F 50.6 °F 30.20 in NE 1.0 mph 2.0 mph 92% 0.18 in 0 W/m2
21:28 52.9 °F 50.6 °F 30.21 in North 1.0 mph 4.0 mph 92% 0.19 in 0 W/m2
21:40 52.9 °F 50.6 °F 30.22 in Calm   2.0 mph 92% 0.11 in 0 W/m2
21:46 52.5 °F 50.2 °F 30.22 in ENE 1.0 mph 3.0 mph 92% 0.15 in 0 W/m2
21:52 52.3 °F 50.0 °F 30.22 in ENE 2.0 mph 2.0 mph 92% 0.16 in 0 W/m2
21:58 52.2 °F 50.2 °F 30.22 in NE 1.0 mph 2.0 mph 93% 0.16 in 0 W/m2
22:04 52.2 °F 50.2 °F 30.22 in Calm   1.0 mph 93% 0.16 in 0 W/m2
22:10 52.2 °F 50.2 °F 30.22 in Calm     93% 0.12 in 0 W/m2
22:16 52.2 °F 50.2 °F 30.22 in Calm     93% 0.09 in 0 W/m2
22:22 52.1 °F 50.1 °F 30.22 in ESE 1.0 mph 2.0 mph 93% 0.10 in 0 W/m2
22:28 51.7 °F 49.7 °F 30.22 in East 3.0 mph 3.0 mph 93% 0.05 in 0 W/m2
22:34 51.3 °F 49.1 °F 30.22 in ESE 3.0 mph 3.0 mph 92% 0.05 in 0 W/m2
22:40 51.0 °F 48.8 °F 30.22 in ENE 2.0 mph 2.0 mph 92% 0.05 in 0 W/m2
22:48 50.7 °F 48.2 °F 30.22 in ENE 2.0 mph 4.0 mph 91% 0.05 in 0 W/m2
22:54 50.5 °F 48.0 °F 30.22 in ENE 3.0 mph 8.0 mph 91% 0.05 in 0 W/m2
23:00 50.6 °F 48.1 °F 30.22 in ENE 4.0 mph 8.0 mph 91% 0.07 in 0 W/m2
23:06 50.5 °F 47.7 °F 30.22 in ENE 4.0 mph 9.0 mph 90% 0.07 in 0 W/m2
23:16 50.3 °F 47.2 °F 30.22 in ESE 4.0 mph 7.0 mph 89% 0.05 in 0 W/m2
23:22 50.1 °F 47.0 °F 30.22 in NE 2.0 mph 3.0 mph 89% 0.13 in 0 W/m2
23:28 49.8 °F 46.7 °F 30.22 in NE 2.0 mph 4.0 mph 89% 0.12 in 0 W/m2
23:34 49.6 °F 46.5 °F 30.22 in ENE 3.0 mph 7.0 mph 89% 0.07 in 0 W/m2
23:40 49.5 °F 46.7 °F 30.22 in ENE 4.0 mph 4.0 mph 90% 0.06 in 0 W/m2
23:46 49.5 °F 46.7 °F 30.22 in East 3.0 mph 7.0 mph 90% 0.11 in 0 W/m2
23:52 49.4 °F 46.3 °F 30.22 in ESE 3.0 mph 7.0 mph 89% 0.08 in 0 W/m2
23:58 49.2 °F 45.8 °F 30.23 in ESE 4.0 mph 7.0 mph 88% 0.07 in 0 W/m2
Country Meadow, Clay, NY, USA
Compliments of Weather Underground - 2 mb